createdAt,value
2017-08-12T00:00:24.215Z,12.70
2017-08-12T00:02:52.679Z,12.70
2017-08-12T00:05:21.167Z,12.60
2017-08-12T00:07:49.854Z,12.70
2017-08-12T00:10:18.319Z,12.60
2017-08-12T00:12:46.799Z,12.70
2017-08-12T00:15:15.313Z,12.70
2017-08-12T00:17:43.782Z,12.80
2017-08-12T00:20:12.284Z,12.80
2017-08-12T00:22:40.739Z,12.80
2017-08-12T00:25:09.240Z,12.80
2017-08-12T00:27:37.714Z,12.80
2017-08-12T00:30:06.207Z,12.80
2017-08-12T00:32:34.683Z,12.80
2017-08-12T00:35:03.299Z,12.70
2017-08-12T00:37:31.775Z,12.80
2017-08-12T00:40:00.244Z,12.80
2017-08-12T00:42:28.698Z,12.70
2017-08-12T00:44:57.174Z,12.70
2017-08-12T00:47:25.275Z,12.80
2017-08-12T00:49:53.402Z,12.70
2017-08-12T00:52:22.631Z,12.70
2017-08-12T00:54:51.107Z,12.70
2017-08-12T00:57:19.579Z,12.80
2017-08-12T00:59:48.808Z,12.80
2017-08-12T01:02:17.295Z,12.70
2017-08-12T01:04:45.776Z,12.80
2017-08-12T01:07:14.247Z,12.70
2017-08-12T01:09:42.754Z,12.70
2017-08-12T01:12:11.230Z,12.70
2017-08-12T01:14:39.747Z,12.80
2017-08-12T01:17:08.215Z,12.70
2017-08-12T01:19:36.743Z,12.70
2017-08-12T01:22:06.095Z,12.60
2017-08-12T01:24:34.571Z,12.60
2017-08-12T01:27:03.039Z,12.70
2017-08-12T01:29:31.540Z,12.70
2017-08-12T01:32:00.023Z,12.70
2017-08-12T01:34:28.492Z,12.70
2017-08-12T01:36:57.079Z,12.70
2017-08-12T01:39:25.551Z,12.70
2017-08-12T01:41:54.038Z,12.70
2017-08-12T01:44:22.507Z,12.60
2017-08-12T01:46:50.983Z,12.70
2017-08-12T01:49:19.458Z,12.70
2017-08-12T01:51:47.919Z,12.80
2017-08-12T01:54:17.161Z,12.80
2017-08-12T01:56:45.651Z,12.70
2017-08-12T01:59:14.131Z,12.60
2017-08-12T02:01:42.624Z,12.60
2017-08-12T02:04:11.089Z,12.70
2017-08-12T02:06:39.702Z,12.70
2017-08-12T02:09:08.188Z,12.70
2017-08-12T02:11:36.805Z,12.70
2017-08-12T02:14:06.042Z,12.60
2017-08-12T02:16:34.514Z,12.60
2017-08-12T02:19:02.970Z,12.70
2017-08-12T02:21:32.219Z,12.70
2017-08-12T02:24:00.679Z,12.60
2017-08-12T02:26:29.146Z,12.70
2017-08-12T02:28:58.492Z,12.70
2017-08-12T02:31:26.947Z,12.60
2017-08-12T02:33:55.426Z,12.70
2017-08-12T02:36:23.890Z,12.60
2017-08-12T02:38:53.119Z,12.60
2017-08-12T02:41:21.595Z,12.60
2017-08-12T02:43:50.070Z,12.60
2017-08-12T02:46:18.554Z,12.60
2017-08-12T02:48:47.044Z,12.60
2017-08-12T02:51:15.510Z,12.60
2017-08-12T02:53:44.811Z,12.60
2017-08-12T02:56:14.060Z,12.50
2017-08-12T02:58:42.555Z,12.50
2017-08-12T03:01:11.024Z,12.50
2017-08-12T03:03:39.490Z,12.50
2017-08-12T03:06:07.970Z,12.50
2017-08-12T03:08:36.475Z,12.50
2017-08-12T03:11:04.943Z,12.50
2017-08-12T03:13:33.426Z,12.60
2017-08-12T03:16:01.903Z,12.60
2017-08-12T03:18:30.359Z,12.60
2017-08-12T03:20:58.823Z,12.60
2017-08-12T03:23:28.065Z,12.50
2017-08-12T03:25:56.531Z,12.50
2017-08-12T03:28:25.011Z,12.50
2017-08-12T03:30:53.472Z,12.50
2017-08-12T03:33:22.926Z,12.50
2017-08-12T03:35:51.418Z,12.50
2017-08-12T03:38:19.883Z,12.40
2017-08-12T03:40:48.343Z,12.50
2017-08-12T03:43:16.840Z,12.50
2017-08-12T03:45:45.303Z,12.50
2017-08-12T03:48:13.878Z,12.50
2017-08-12T03:50:43.120Z,12.50
2017-08-12T03:53:11.587Z,12.40
2017-08-12T03:55:40.047Z,12.40
2017-08-12T03:58:09.298Z,12.50
2017-08-12T04:00:37.759Z,12.40
2017-08-12T04:03:06.242Z,12.50
2017-08-12T04:05:34.731Z,12.50
2017-08-12T04:08:03.218Z,12.50
2017-08-12T04:10:31.683Z,12.50
2017-08-12T04:13:00.184Z,12.50
2017-08-12T04:15:28.651Z,12.50
2017-08-12T04:17:57.114Z,12.50
2017-08-12T04:20:25.601Z,12.50
2017-08-12T04:22:54.060Z,12.50
2017-08-12T04:25:23.367Z,12.50
2017-08-12T04:27:52.595Z,12.50
2017-08-12T04:30:21.090Z,12.40
2017-08-12T04:32:49.571Z,12.50
2017-08-12T04:35:18.063Z,12.40
2017-08-12T04:37:46.530Z,12.40
2017-08-12T04:40:15.051Z,12.40
2017-08-12T04:42:43.528Z,12.40
2017-08-12T04:45:12.000Z,12.40
2017-08-12T04:47:40.467Z,12.40
2017-08-12T04:50:09.047Z,12.40
2017-08-12T04:52:37.510Z,12.40
2017-08-12T04:55:05.974Z,12.30
2017-08-12T04:57:35.223Z,12.30
2017-08-12T05:00:03.682Z,12.30
2017-08-12T05:02:32.151Z,12.40
2017-08-12T05:05:00.762Z,12.30
2017-08-12T05:07:29.227Z,12.40
2017-08-12T05:09:57.707Z,12.40
2017-08-12T05:12:26.182Z,12.50
2017-08-12T05:14:54.676Z,12.50
2017-08-12T05:17:23.134Z,12.50
2017-08-12T05:19:52.360Z,12.50
2017-08-12T05:22:20.838Z,12.50
2017-08-12T05:24:49.304Z,12.60
2017-08-12T05:27:17.822Z,12.60
2017-08-12T05:29:46.276Z,12.60
2017-08-12T05:32:14.760Z,12.60
2017-08-12T05:34:43.216Z,12.70
2017-08-12T05:37:11.724Z,12.70
2017-08-12T05:39:40.239Z,12.70
2017-08-12T05:42:08.707Z,12.70
2017-08-12T05:44:37.230Z,12.80
2017-08-12T05:47:05.711Z,12.90
2017-08-12T05:49:34.246Z,12.90
2017-08-12T05:52:02.719Z,13.00
2017-08-12T05:54:31.233Z,12.90
2017-08-12T05:56:59.838Z,13.00
2017-08-12T05:59:28.455Z,13.00
2017-08-12T06:01:57.689Z,13.10
2017-08-12T06:04:26.158Z,13.10
2017-08-12T06:06:54.619Z,13.10
2017-08-12T06:09:23.852Z,13.00
2017-08-12T06:11:52.318Z,13.00
2017-08-12T06:14:20.779Z,13.10
2017-08-12T06:16:49.259Z,13.10
2017-08-12T06:19:17.704Z,13.10
2017-08-12T06:21:46.197Z,13.20
2017-08-12T06:24:14.656Z,13.10
2017-08-12T06:26:43.123Z,13.20
2017-08-12T06:29:11.595Z,13.20
2017-08-12T06:31:40.061Z,13.30
2017-08-12T06:34:09.291Z,13.40
2017-08-12T06:36:37.743Z,13.30
2017-08-12T06:39:06.987Z,13.40
2017-08-12T06:41:35.468Z,13.40
2017-08-12T06:44:03.932Z,13.30
2017-08-12T06:46:32.635Z,13.40
2017-08-12T06:49:01.099Z,13.30
2017-08-12T06:51:29.568Z,13.40
2017-08-12T06:53:58.935Z,13.40
2017-08-12T06:56:27.488Z,13.40
2017-08-12T06:58:55.955Z,13.50
2017-08-12T07:01:24.403Z,13.50
2017-08-12T07:03:52.886Z,13.60
2017-08-12T07:06:22.139Z,13.50
2017-08-12T07:08:50.591Z,13.40
2017-08-12T07:11:19.062Z,13.40
2017-08-12T07:13:48.278Z,13.60
2017-08-12T07:16:16.747Z,13.50
2017-08-12T07:18:46.080Z,13.70
2017-08-12T07:21:14.544Z,13.70
2017-08-12T07:23:43.047Z,13.90
2017-08-12T07:26:11.510Z,14.20
2017-08-12T07:28:39.987Z,14.30
2017-08-12T07:31:10.116Z,14.50
2017-08-12T07:33:38.628Z,14.50
2017-08-12T07:36:07.299Z,14.50
2017-08-12T07:38:35.743Z,14.40
2017-08-12T07:41:04.995Z,14.20
2017-08-12T07:43:33.447Z,14.20
2017-08-12T07:46:01.923Z,14.40
2017-08-12T07:48:30.395Z,14.40
2017-08-12T07:50:59.616Z,14.70
2017-08-12T07:53:28.099Z,14.70
2017-08-12T07:55:56.563Z,14.80
2017-08-12T07:58:25.789Z,15.20
2017-08-12T08:00:54.278Z,15.10
2017-08-12T08:03:22.755Z,15.20
2017-08-12T08:05:51.225Z,15.10
2017-08-12T08:08:19.680Z,15.30
2017-08-12T08:10:48.943Z,15.50
2017-08-12T08:13:17.410Z,15.40
2017-08-12T08:15:46.047Z,15.40
2017-08-12T08:18:15.284Z,15.50
2017-08-12T08:20:43.734Z,15.50
2017-08-12T08:23:12.983Z,15.60
2017-08-12T08:25:41.476Z,15.50
2017-08-12T08:28:09.959Z,15.50
2017-08-12T08:30:38.422Z,15.50
2017-08-12T08:33:06.896Z,15.60
2017-08-12T08:35:35.370Z,15.50
2017-08-12T08:38:03.828Z,15.40
2017-08-12T08:40:33.077Z,15.50
2017-08-12T08:43:01.539Z,15.50
2017-08-12T08:45:29.998Z,15.50
2017-08-12T08:47:59.243Z,15.60
2017-08-12T08:50:27.710Z,15.60
2017-08-12T08:52:56.225Z,15.60
2017-08-12T08:55:25.634Z,15.80
2017-08-12T08:57:54.138Z,15.70
2017-08-12T09:00:22.591Z,15.80
2017-08-12T09:02:51.263Z,15.70
2017-08-12T09:05:19.723Z,15.80
2017-08-12T09:07:48.224Z,15.90
2017-08-12T09:10:16.679Z,15.80
2017-08-12T09:12:45.128Z,16.10
2017-08-12T09:15:13.616Z,16.20
2017-08-12T09:17:42.067Z,16.20
2017-08-12T09:20:10.535Z,16.30
2017-08-12T09:22:39.074Z,16.30
2017-08-12T09:25:08.323Z,16.80
2017-08-12T09:27:36.896Z,16.70
2017-08-12T09:30:05.372Z,16.70
2017-08-12T09:32:33.847Z,16.90
2017-08-12T09:35:02.304Z,17.00
2017-08-12T09:37:31.531Z,17.20
2017-08-12T09:39:59.998Z,17.20
2017-08-12T09:42:29.217Z,17.40
2017-08-12T09:44:57.691Z,17.40
2017-08-12T09:47:26.148Z,17.20
2017-08-12T09:49:55.392Z,17.50
2017-08-12T09:52:23.861Z,17.50
2017-08-12T09:54:52.567Z,17.50
2017-08-12T09:57:21.043Z,17.50
2017-08-12T09:59:49.635Z,17.50
2017-08-12T10:02:18.128Z,17.30
2017-08-12T10:04:46.603Z,17.10
2017-08-12T10:07:15.056Z,16.80
2017-08-12T10:09:43.551Z,16.90
2017-08-12T10:12:12.019Z,16.90
2017-08-12T10:14:40.503Z,16.90
2017-08-12T10:17:08.972Z,17.10
2017-08-12T10:19:38.195Z,17.70
2017-08-12T10:22:06.799Z,17.70
2017-08-12T10:24:35.274Z,17.60
2017-08-12T10:27:03.751Z,17.60
2017-08-12T10:29:32.215Z,17.70
2017-08-12T10:32:00.729Z,17.60
2017-08-12T10:34:29.196Z,17.80
2017-08-12T10:36:57.664Z,17.90
2017-08-12T10:39:26.895Z,18.00
2017-08-12T10:41:55.355Z,17.90
2017-08-12T10:44:23.835Z,18.10
2017-08-12T10:46:52.320Z,18.40
2017-08-12T10:49:20.798Z,18.40
2017-08-12T10:51:49.285Z,18.40
2017-08-12T10:54:17.756Z,18.40
2017-08-12T10:56:46.256Z,18.10
2017-08-12T10:59:14.800Z,17.80
2017-08-12T11:01:44.028Z,17.70
2017-08-12T11:04:12.502Z,17.70
2017-08-12T11:06:41.072Z,17.80
2017-08-12T11:09:10.324Z,18.20
2017-08-12T11:11:38.816Z,18.20
2017-08-12T11:14:07.436Z,18.30
2017-08-12T11:16:36.491Z,18.20
2017-08-12T11:19:04.974Z,18.10
2017-08-12T11:21:33.470Z,18.30
2017-08-12T11:24:01.939Z,18.50
2017-08-12T11:26:30.439Z,18.20
2017-08-12T11:28:58.901Z,18.60
2017-08-12T11:31:27.500Z,18.60
2017-08-12T11:33:55.971Z,18.50
2017-08-12T11:36:24.437Z,18.50
2017-08-12T11:38:52.920Z,18.70
2017-08-12T11:41:21.427Z,18.70
2017-08-12T11:43:49.900Z,18.60
2017-08-12T11:46:18.392Z,18.60
2017-08-12T11:48:46.855Z,18.90
2017-08-12T11:51:15.356Z,19.10
2017-08-12T11:53:43.878Z,19.00
2017-08-12T11:56:13.119Z,18.70
2017-08-12T11:58:41.604Z,18.60
2017-08-12T12:01:10.074Z,18.50
2017-08-12T12:03:38.669Z,18.60
2017-08-12T12:06:07.144Z,18.60
2017-08-12T12:08:35.632Z,18.60
2017-08-12T12:11:04.106Z,18.80
2017-08-12T12:13:32.562Z,18.90
2017-08-12T12:16:01.818Z,18.50
2017-08-12T12:18:30.279Z,18.50
2017-08-12T12:20:58.733Z,18.50
2017-08-12T12:23:27.206Z,18.60
2017-08-12T12:25:56.443Z,18.40
2017-08-12T12:28:24.909Z,18.30
2017-08-12T12:30:53.398Z,18.30
2017-08-12T12:33:21.863Z,18.40
2017-08-12T12:35:50.407Z,18.30
2017-08-12T12:38:18.867Z,18.30
2017-08-12T12:40:47.386Z,18.30
2017-08-12T12:43:15.872Z,18.40
2017-08-12T12:45:45.099Z,18.20
2017-08-12T12:48:13.571Z,18.10
2017-08-12T12:50:42.832Z,18.10
2017-08-12T12:53:11.319Z,18.10
2017-08-12T12:55:39.791Z,17.70
2017-08-12T12:58:08.246Z,17.90
2017-08-12T13:00:36.721Z,17.90
2017-08-12T13:03:05.971Z,18.10
2017-08-12T13:05:34.448Z,18.20
2017-08-12T13:08:03.139Z,18.20
2017-08-12T13:10:31.619Z,18.30
2017-08-12T13:13:00.091Z,18.20
2017-08-12T13:15:28.555Z,18.20
2017-08-12T13:17:57.033Z,18.30
2017-08-12T13:20:25.517Z,18.20
2017-08-12T13:22:53.995Z,18.30
2017-08-12T13:25:22.455Z,18.20
2017-08-12T13:27:51.064Z,18.30
2017-08-12T13:30:19.539Z,18.20
2017-08-12T13:32:48.059Z,18.40
2017-08-12T13:35:16.530Z,18.20
2017-08-12T13:37:45.031Z,18.10
2017-08-12T13:40:13.510Z,18.00
2017-08-12T13:42:42.008Z,18.10
2017-08-12T13:45:10.494Z,17.90
2017-08-12T13:47:39.743Z,17.70
2017-08-12T13:50:08.227Z,17.60
2017-08-12T13:52:36.776Z,17.60
2017-08-12T13:55:06.032Z,17.70
2017-08-12T13:57:34.500Z,17.70
2017-08-12T14:00:03.187Z,17.90
2017-08-12T14:02:31.639Z,17.90
2017-08-12T14:05:00.105Z,17.70
2017-08-12T14:07:29.485Z,17.60
2017-08-12T14:09:58.027Z,17.60
2017-08-12T14:12:26.517Z,17.50
2017-08-12T14:14:54.975Z,17.50
2017-08-12T14:17:23.460Z,17.50
2017-08-12T14:19:51.947Z,17.40
2017-08-12T14:22:20.411Z,17.20
2017-08-12T14:24:49.647Z,17.10
2017-08-12T14:27:18.124Z,17.00
2017-08-12T14:29:46.578Z,17.10
2017-08-12T14:32:15.068Z,17.10
2017-08-12T14:34:43.544Z,17.20
2017-08-12T14:37:12.020Z,17.30
2017-08-12T14:39:41.268Z,17.50
2017-08-12T14:42:09.742Z,17.40
2017-08-12T14:44:38.223Z,17.60
2017-08-12T14:47:06.759Z,17.80
2017-08-12T14:49:36.002Z,18.00
2017-08-12T14:52:04.502Z,18.00
2017-08-12T14:54:32.959Z,18.10
2017-08-12T14:57:01.411Z,18.20
2017-08-12T14:59:30.657Z,18.50
2017-08-12T15:01:59.122Z,18.40
2017-08-12T15:04:27.598Z,18.50
2017-08-12T15:06:56.208Z,18.40
2017-08-12T15:09:24.723Z,18.30
2017-08-12T15:11:53.196Z,18.20
2017-08-12T15:14:21.651Z,18.40
2017-08-12T15:16:50.131Z,18.40
2017-08-12T15:19:18.628Z,18.30
2017-08-12T15:21:47.091Z,18.20
2017-08-12T15:24:15.672Z,18.10
2017-08-12T15:26:44.136Z,18.00
2017-08-12T15:29:12.615Z,17.80
2017-08-12T15:31:41.114Z,17.90
2017-08-12T15:34:09.574Z,18.00
2017-08-12T15:36:38.820Z,18.00
2017-08-12T15:39:07.321Z,18.00
2017-08-12T15:41:35.882Z,17.70
2017-08-12T15:44:04.375Z,17.70
2017-08-12T15:46:32.839Z,17.70
2017-08-12T15:49:01.319Z,17.70
2017-08-12T15:51:29.797Z,17.80
2017-08-12T15:53:58.268Z,17.60
2017-08-12T15:56:26.752Z,17.50
2017-08-12T15:58:55.414Z,17.60
2017-08-12T16:01:24.655Z,17.90
2017-08-12T16:03:53.122Z,17.90
2017-08-12T16:06:21.619Z,18.10
2017-08-12T16:08:50.211Z,18.20
2017-08-12T16:11:18.678Z,18.20
2017-08-12T16:13:47.195Z,18.10
2017-08-12T16:16:15.681Z,17.80
2017-08-12T16:18:44.152Z,17.70
2017-08-12T16:21:12.616Z,17.70
2017-08-12T16:23:41.074Z,17.60
2017-08-12T16:26:09.551Z,17.50
2017-08-12T16:28:38.876Z,17.30
2017-08-12T16:31:07.347Z,17.30
2017-08-12T16:33:35.828Z,17.20
2017-08-12T16:36:04.305Z,17.30
2017-08-12T16:38:33.545Z,17.20
2017-08-12T16:41:01.997Z,17.20
2017-08-12T16:43:30.495Z,17.20
2017-08-12T16:45:58.948Z,17.10
2017-08-12T16:48:27.419Z,17.10
2017-08-12T16:50:56.663Z,16.90
2017-08-12T16:53:25.132Z,16.90
2017-08-12T16:55:53.677Z,16.90
2017-08-12T16:58:22.131Z,16.80
2017-08-12T17:00:50.598Z,16.90
2017-08-12T17:03:19.076Z,16.80
2017-08-12T17:05:47.616Z,16.70
2017-08-12T17:08:16.856Z,16.70
2017-08-12T17:10:45.415Z,16.60
2017-08-12T17:13:13.873Z,16.60
2017-08-12T17:15:42.357Z,16.50
2017-08-12T17:18:10.854Z,16.50
2017-08-12T17:20:40.097Z,16.50
2017-08-12T17:23:09.239Z,16.40
2017-08-12T17:25:37.808Z,16.40
2017-08-12T17:28:06.255Z,16.40
2017-08-12T17:30:34.727Z,16.50
2017-08-12T17:33:03.229Z,16.40
2017-08-12T17:35:31.704Z,16.40
2017-08-12T17:38:00.174Z,16.40
2017-08-12T17:40:28.667Z,16.30
2017-08-12T17:42:57.120Z,16.30
2017-08-12T17:45:25.621Z,16.30
2017-08-12T17:47:54.100Z,16.30
2017-08-12T17:50:22.561Z,16.30
2017-08-12T17:52:51.823Z,16.30
2017-08-12T17:55:20.352Z,16.20
2017-08-12T17:57:48.983Z,16.30
2017-08-12T18:00:17.468Z,16.30
2017-08-12T18:02:46.135Z,16.30
2017-08-12T18:05:14.590Z,16.20
2017-08-12T18:07:43.196Z,16.20
2017-08-12T18:10:11.894Z,16.10
2017-08-12T18:12:40.372Z,16.10
2017-08-12T18:15:08.859Z,16.00
2017-08-12T18:17:37.319Z,16.00
2017-08-12T18:20:05.793Z,16.00
2017-08-12T18:22:34.267Z,16.00
2017-08-12T18:25:03.516Z,15.80
2017-08-12T18:27:31.988Z,15.80
2017-08-12T18:30:00.466Z,15.80
2017-08-12T18:32:28.926Z,15.80
2017-08-12T18:34:57.491Z,15.80
2017-08-12T18:37:26.724Z,15.80
2017-08-12T18:39:55.211Z,15.70
2017-08-12T18:42:23.672Z,15.70
2017-08-12T18:44:52.147Z,15.80
2017-08-12T18:47:21.431Z,15.70
2017-08-12T18:49:50.631Z,15.60
2017-08-12T18:52:19.123Z,15.60
2017-08-12T18:54:48.360Z,15.60
2017-08-12T18:57:16.818Z,15.60
2017-08-12T18:59:45.322Z,15.60
2017-08-12T19:02:13.786Z,15.60
2017-08-12T19:04:42.262Z,15.60
2017-08-12T19:07:10.727Z,15.60
2017-08-12T19:09:39.963Z,15.50
2017-08-12T19:12:08.451Z,15.40
2017-08-12T19:14:36.925Z,15.40
2017-08-12T19:17:05.443Z,15.40
2017-08-12T19:19:33.906Z,15.20
2017-08-12T19:22:02.363Z,15.10
2017-08-12T19:24:30.843Z,15.10
2017-08-12T19:26:59.394Z,15.00
2017-08-12T19:29:27.886Z,15.10
2017-08-12T19:31:57.088Z,15.00
2017-08-12T19:34:26.339Z,15.00
2017-08-12T19:36:54.932Z,15.00
2017-08-12T19:39:23.386Z,15.10
2017-08-12T19:41:51.892Z,15.00
2017-08-12T19:44:20.386Z,15.10
2017-08-12T19:46:48.868Z,15.10
2017-08-12T19:49:17.355Z,15.10
2017-08-12T19:51:46.711Z,15.00
2017-08-12T19:54:15.205Z,15.00
2017-08-12T19:56:43.691Z,15.00
2017-08-12T19:59:12.189Z,14.90
2017-08-12T20:01:40.783Z,14.80
2017-08-12T20:04:09.289Z,14.80
2017-08-12T20:06:37.751Z,14.60
2017-08-12T20:09:06.239Z,14.60
2017-08-12T20:11:34.708Z,14.60
2017-08-12T20:14:03.196Z,14.60
2017-08-12T20:16:31.684Z,14.60
2017-08-12T20:19:00.166Z,14.60
2017-08-12T20:21:28.651Z,14.60
2017-08-12T20:23:57.106Z,14.60
2017-08-12T20:26:25.598Z,14.60
2017-08-12T20:28:54.283Z,14.60
2017-08-12T20:31:22.763Z,14.60
2017-08-12T20:33:51.229Z,14.60
2017-08-12T20:36:19.714Z,14.70
2017-08-12T20:38:48.224Z,14.60
2017-08-12T20:41:16.687Z,14.60
2017-08-12T20:43:45.162Z,14.60
2017-08-12T20:46:13.755Z,14.50
2017-08-12T20:48:42.283Z,14.50
2017-08-12T20:51:10.775Z,14.60
2017-08-12T20:53:39.995Z,14.60
2017-08-12T20:56:08.451Z,14.60
2017-08-12T20:58:36.940Z,14.60
2017-08-12T21:01:05.587Z,14.70
2017-08-12T21:03:34.109Z,14.60
2017-08-12T21:06:03.407Z,14.60
2017-08-12T21:08:31.854Z,14.50
2017-08-12T21:11:00.360Z,14.50
2017-08-12T21:13:28.840Z,14.50
2017-08-12T21:15:57.324Z,14.50
2017-08-12T21:18:25.804Z,14.50
2017-08-12T21:20:54.340Z,14.50
2017-08-12T21:23:22.809Z,14.50
2017-08-12T21:25:51.943Z,14.50
2017-08-12T21:28:20.471Z,14.40
2017-08-12T21:30:49.723Z,14.40
2017-08-12T21:33:18.199Z,14.30
2017-08-12T21:35:46.684Z,14.40
2017-08-12T21:38:15.171Z,14.40
2017-08-12T21:40:43.701Z,14.40
2017-08-12T21:43:12.951Z,14.50
2017-08-12T21:45:41.410Z,14.40
2017-08-12T21:48:09.960Z,14.50
2017-08-12T21:50:38.463Z,14.40
2017-08-12T21:53:07.797Z,14.30
2017-08-12T21:55:36.387Z,14.30
2017-08-12T21:58:05.528Z,14.30
2017-08-12T22:00:34.003Z,14.30
2017-08-12T22:03:02.455Z,14.30
2017-08-12T22:05:30.942Z,14.30
2017-08-12T22:07:59.424Z,14.30
2017-08-12T22:10:27.875Z,14.30
2017-08-12T22:12:56.468Z,14.30
2017-08-12T22:15:24.927Z,14.30
2017-08-12T22:17:54.178Z,14.30
2017-08-12T22:20:22.675Z,14.30
2017-08-12T22:22:51.134Z,14.30
2017-08-12T22:25:19.623Z,14.30
2017-08-12T22:27:48.111Z,14.30
2017-08-12T22:30:16.773Z,14.30
2017-08-12T22:32:45.271Z,14.20
2017-08-12T22:35:13.736Z,14.30
2017-08-12T22:37:42.243Z,14.30
2017-08-12T22:40:10.726Z,14.30
2017-08-12T22:42:39.200Z,14.20
2017-08-12T22:45:07.676Z,14.20
2017-08-12T22:47:36.131Z,14.30
2017-08-12T22:50:04.747Z,14.30
2017-08-12T22:52:33.331Z,14.30
2017-08-12T22:55:01.798Z,14.20
2017-08-12T22:57:30.491Z,14.20
2017-08-12T22:59:58.958Z,14.20
2017-08-12T23:02:27.426Z,14.20
2017-08-12T23:04:56.762Z,14.10
2017-08-12T23:07:25.227Z,14.10
2017-08-12T23:09:53.813Z,14.10
2017-08-12T23:12:22.283Z,14.10
2017-08-12T23:14:51.507Z,14.10
2017-08-12T23:17:19.987Z,14.10
2017-08-12T23:19:48.448Z,14.10
2017-08-12T23:22:16.932Z,14.20
2017-08-12T23:24:45.382Z,14.10
2017-08-12T23:27:13.881Z,14.10
2017-08-12T23:29:43.207Z,14.20
2017-08-12T23:32:11.669Z,14.10
2017-08-12T23:34:40.906Z,14.20
2017-08-12T23:37:09.515Z,14.10
2017-08-12T23:39:37.984Z,14.10
2017-08-12T23:42:06.467Z,14.10
2017-08-12T23:44:34.955Z,14.10
2017-08-12T23:47:03.443Z,14.10
2017-08-12T23:49:31.897Z,14.10
2017-08-12T23:52:00.363Z,14.20
2017-08-12T23:54:28.875Z,14.20
2017-08-12T23:56:57.343Z,14.10
2017-08-12T23:59:25.824Z,14.20
